createdAt,value
2024-04-23T00:00:33.974Z,963.16
2024-04-23T00:01:34.037Z,963.16
2024-04-23T00:02:33.980Z,963.16
2024-04-23T00:03:33.955Z,963.15
2024-04-23T00:04:34.015Z,963.15
2024-04-23T00:05:33.944Z,963.15
2024-04-23T00:06:33.935Z,963.15
2024-04-23T00:07:33.907Z,963.15
2024-04-23T00:08:33.903Z,963.14
2024-04-23T00:09:33.895Z,963.14
2024-04-23T00:10:33.996Z,963.14
2024-04-23T00:11:33.950Z,963.11
2024-04-23T00:12:33.868Z,963.10
2024-04-23T00:13:33.860Z,963.09
2024-04-23T00:14:33.815Z,963.07
2024-04-23T00:15:33.826Z,963.06
2024-04-23T00:16:33.875Z,963.03
2024-04-23T00:17:33.962Z,963.04
2024-04-23T00:18:33.939Z,963.03
2024-04-23T00:19:33.839Z,963.03
2024-04-23T00:20:33.806Z,963.04
2024-04-23T00:21:33.779Z,963.02
2024-04-23T00:22:33.816Z,963.02
2024-04-23T00:23:33.794Z,963.01
2024-04-23T00:24:33.814Z,963.00
2024-04-23T00:25:33.870Z,963.00
2024-04-23T00:26:33.707Z,963.00
2024-04-23T00:27:33.700Z,963.00
2024-04-23T00:28:33.747Z,963.00
2024-04-23T00:29:33.709Z,962.99
2024-04-23T00:30:33.689Z,963.00
2024-04-23T00:31:33.704Z,963.00
2024-04-23T00:32:33.731Z,963.01
2024-04-23T00:33:33.677Z,963.00
2024-04-23T00:34:33.679Z,963.00
2024-04-23T00:35:33.623Z,963.00
2024-04-23T00:36:33.596Z,963.00
2024-04-23T00:37:33.650Z,962.99
2024-04-23T00:38:33.590Z,962.99
2024-04-23T00:39:33.599Z,962.98
2024-04-23T00:40:33.667Z,962.97
2024-04-23T00:41:35.910Z,962.95
2024-04-23T00:42:33.547Z,962.95
2024-04-23T00:43:33.588Z,962.94
2024-04-23T00:44:33.574Z,962.93
2024-04-23T00:45:33.534Z,962.93
2024-04-23T00:46:33.536Z,962.92
2024-04-23T00:47:33.574Z,962.92
2024-04-23T00:48:33.576Z,962.90
2024-04-23T00:49:33.504Z,962.90
2024-04-23T00:50:33.467Z,962.89
2024-04-23T00:51:33.466Z,962.88
2024-04-23T00:52:33.502Z,962.86
2024-04-23T00:53:33.487Z,962.84
2024-04-23T00:54:33.440Z,962.82
2024-04-23T00:55:33.510Z,962.81
2024-04-23T00:56:33.427Z,962.79
2024-04-23T00:57:33.413Z,962.79
2024-04-23T00:58:33.423Z,962.78
2024-04-23T00:59:33.391Z,962.76
2024-04-23T01:00:33.383Z,962.73
2024-04-23T01:01:33.413Z,962.72
2024-04-23T01:02:33.402Z,962.71
2024-04-23T01:03:33.393Z,962.71
2024-04-23T01:04:33.395Z,962.71
2024-04-23T01:05:33.355Z,962.70
2024-04-23T01:06:33.307Z,962.71
2024-04-23T01:07:33.355Z,962.69
2024-04-23T01:08:33.289Z,962.69
2024-04-23T01:09:33.280Z,962.68
2024-04-23T01:10:33.354Z,962.68
2024-04-23T01:11:33.283Z,962.66
2024-04-23T01:12:33.283Z,962.66
2024-04-23T01:13:33.334Z,962.65
2024-04-23T01:14:33.227Z,962.64
2024-04-23T01:15:33.223Z,962.64
2024-04-23T01:16:33.274Z,962.63
2024-04-23T01:17:33.223Z,962.63
2024-04-23T01:18:33.196Z,962.63
2024-04-23T01:19:33.232Z,962.61
2024-04-23T01:20:33.161Z,962.61
2024-04-23T01:21:33.185Z,962.61
2024-04-23T01:22:33.161Z,962.61
2024-04-23T01:23:33.144Z,962.62
2024-04-23T01:24:33.126Z,962.62
2024-04-23T01:25:33.137Z,962.62
2024-04-23T01:26:33.145Z,962.61
2024-04-23T01:27:33.116Z,962.60
2024-04-23T01:28:33.119Z,962.59
2024-04-23T01:29:33.084Z,962.58
2024-04-23T01:30:33.074Z,962.57
2024-04-23T01:31:33.092Z,962.55
2024-04-23T01:32:33.147Z,962.54
2024-04-23T01:33:33.118Z,962.54
2024-04-23T01:34:33.115Z,962.54
2024-04-23T01:35:33.047Z,962.54
2024-04-23T01:36:33.023Z,962.55
2024-04-23T01:37:33.084Z,962.55
2024-04-23T01:38:32.996Z,962.55
2024-04-23T01:39:33.031Z,962.55
2024-04-23T01:40:33.000Z,962.56
2024-04-23T01:41:32.943Z,962.57
2024-04-23T01:42:32.969Z,962.59
2024-04-23T01:43:32.955Z,962.60
2024-04-23T01:44:32.922Z,962.61
2024-04-23T01:45:32.946Z,962.62
2024-04-23T01:46:32.965Z,962.61
2024-04-23T01:47:32.925Z,962.61
2024-04-23T01:48:32.931Z,962.60
2024-04-23T01:49:32.927Z,962.59
2024-04-23T01:50:32.874Z,962.58
2024-04-23T01:51:32.857Z,962.58
2024-04-23T01:52:32.859Z,962.58
2024-04-23T01:53:32.857Z,962.59
2024-04-23T01:54:32.843Z,962.59
2024-04-23T01:55:32.859Z,962.61
2024-04-23T01:56:32.812Z,962.62
2024-04-23T01:57:32.805Z,962.63
2024-04-23T01:58:32.868Z,962.63
2024-04-23T01:59:32.859Z,962.63
2024-04-23T02:00:32.776Z,962.62
2024-04-23T02:01:32.783Z,962.62
2024-04-23T02:02:32.806Z,962.61
2024-04-23T02:03:32.816Z,962.59
2024-04-23T02:04:32.764Z,962.58
2024-04-23T02:05:32.715Z,962.56
2024-04-23T02:06:32.704Z,962.57
2024-04-23T02:07:32.767Z,962.56
2024-04-23T02:08:32.692Z,962.56
2024-04-23T02:09:32.707Z,962.56
2024-04-23T02:10:32.722Z,962.56
2024-04-23T02:11:32.787Z,962.57
2024-04-23T02:12:32.672Z,962.58
2024-04-23T02:13:32.666Z,962.57
2024-04-23T02:14:32.626Z,962.58
2024-04-23T02:15:32.659Z,962.57
2024-04-23T02:16:32.665Z,962.57
2024-04-23T02:17:32.700Z,962.57
2024-04-23T02:18:32.635Z,962.57
2024-04-23T02:19:32.615Z,962.57
2024-04-23T02:20:32.615Z,962.56
2024-04-23T02:21:32.558Z,962.55
2024-04-23T02:22:32.585Z,962.55
2024-04-23T02:23:32.550Z,962.54
2024-04-23T02:24:32.530Z,962.55
2024-04-23T02:25:32.575Z,962.55
2024-04-23T02:26:32.531Z,962.56
2024-04-23T02:27:32.516Z,962.58
2024-04-23T02:28:32.490Z,962.57
2024-04-23T02:29:32.480Z,962.57
2024-04-23T02:30:32.489Z,962.56
2024-04-23T02:31:32.552Z,962.57
2024-04-23T02:32:32.533Z,962.56
2024-04-23T02:33:32.560Z,962.55
2024-04-23T02:34:32.521Z,962.55
2024-04-23T02:35:32.403Z,962.56
2024-04-23T02:36:32.417Z,962.56
2024-04-23T02:37:32.424Z,962.55
2024-04-23T02:38:32.378Z,962.54
2024-04-23T02:39:32.384Z,962.51
2024-04-23T02:40:32.397Z,962.49
2024-04-23T02:41:32.372Z,962.47
2024-04-23T02:42:32.368Z,962.45
2024-04-23T02:43:32.372Z,962.45
2024-04-23T02:44:32.329Z,962.43
2024-04-23T02:45:32.345Z,962.41
2024-04-23T02:46:32.355Z,962.40
2024-04-23T02:47:32.342Z,962.40
2024-04-23T02:48:32.340Z,962.40
2024-04-23T02:49:32.320Z,962.39
2024-04-23T02:50:32.288Z,962.40
2024-04-23T02:51:32.283Z,962.42
2024-04-23T02:52:32.927Z,962.43
2024-04-23T02:53:32.250Z,962.44
2024-04-23T02:54:32.262Z,962.44
2024-04-23T02:55:32.298Z,962.44
2024-04-23T02:56:32.214Z,962.43
2024-04-23T02:57:32.203Z,962.44
2024-04-23T02:58:32.214Z,962.43
2024-04-23T02:59:32.213Z,962.42
2024-04-23T03:00:32.195Z,962.41
2024-04-23T03:01:32.205Z,962.40
2024-04-23T03:02:32.326Z,962.37
2024-04-23T03:03:32.199Z,962.37
2024-04-23T03:04:32.176Z,962.36
2024-04-23T03:05:32.114Z,962.35
2024-04-23T03:06:32.107Z,962.35
2024-04-23T03:07:32.132Z,962.34
2024-04-23T03:08:35.506Z,962.33
2024-04-23T03:09:32.113Z,962.31
2024-04-23T03:10:32.168Z,962.30
2024-04-23T03:11:32.081Z,962.29
2024-04-23T03:12:32.044Z,962.29
2024-04-23T03:13:32.087Z,962.29
2024-04-23T03:14:32.051Z,962.29
2024-04-23T03:15:32.042Z,962.29
2024-04-23T03:16:32.086Z,962.28
2024-04-23T03:17:32.141Z,962.27
2024-04-23T03:18:32.037Z,962.27
2024-04-23T03:19:32.003Z,962.27
2024-04-23T03:20:32.011Z,962.26
2024-04-23T03:21:31.963Z,962.25
2024-04-23T03:22:32.000Z,962.25
2024-04-23T03:23:31.963Z,962.24
2024-04-23T03:24:31.923Z,962.23
2024-04-23T03:25:31.948Z,962.22
2024-04-23T03:26:31.901Z,962.22
2024-04-23T03:27:31.906Z,962.21
2024-04-23T03:28:31.916Z,962.19
2024-04-23T03:29:31.893Z,962.20
2024-04-23T03:30:31.867Z,962.18
2024-04-23T03:31:31.891Z,962.17
2024-04-23T03:32:31.939Z,962.17
2024-04-23T03:33:31.804Z,962.16
2024-04-23T03:34:31.810Z,962.16
2024-04-23T03:35:31.758Z,962.15
2024-04-23T03:36:31.754Z,962.15
2024-04-23T03:37:31.822Z,962.15
2024-04-23T03:38:31.726Z,962.14
2024-04-23T03:39:31.753Z,962.12
2024-04-23T03:40:31.746Z,962.11
2024-04-23T03:41:31.764Z,962.11
2024-04-23T03:42:31.752Z,962.11
2024-04-23T03:43:31.735Z,962.13
2024-04-23T03:44:31.645Z,962.13
2024-04-23T03:45:31.655Z,962.16
2024-04-23T03:46:31.657Z,962.17
2024-04-23T03:47:31.720Z,962.18
2024-04-23T03:48:31.641Z,962.17
2024-04-23T03:49:31.693Z,962.18
2024-04-23T03:50:31.615Z,962.18
2024-04-23T03:51:31.628Z,962.17
2024-04-23T03:52:31.625Z,962.15
2024-04-23T03:53:31.577Z,962.13
2024-04-23T03:54:31.564Z,962.12
2024-04-23T03:55:31.627Z,962.11
2024-04-23T03:56:31.557Z,962.11
2024-04-23T03:57:31.562Z,962.10
2024-04-23T03:58:31.555Z,962.09
2024-04-23T03:59:31.514Z,962.08
2024-04-23T04:00:31.530Z,962.07
2024-04-23T04:01:31.568Z,962.07
2024-04-23T04:02:31.671Z,962.06
2024-04-23T04:03:31.593Z,962.05
2024-04-23T04:04:31.502Z,962.04
2024-04-23T04:05:31.488Z,962.04
2024-04-23T04:06:31.441Z,962.04
2024-04-23T04:07:31.449Z,962.04
2024-04-23T04:08:31.439Z,962.03
2024-04-23T04:09:31.458Z,962.03
2024-04-23T04:10:31.447Z,962.02
2024-04-23T04:11:31.449Z,962.02
2024-04-23T04:12:31.380Z,962.00
2024-04-23T04:13:31.434Z,962.01
2024-04-23T04:14:31.387Z,962.00
2024-04-23T04:15:31.368Z,962.01
2024-04-23T04:16:35.232Z,962.00
2024-04-23T04:17:31.457Z,961.99
2024-04-23T04:18:31.340Z,961.98
2024-04-23T04:19:31.317Z,961.98
2024-04-23T04:20:31.304Z,961.97
2024-04-23T04:21:31.288Z,961.96
2024-04-23T04:22:31.326Z,961.95
2024-04-23T04:23:31.290Z,961.93
2024-04-23T04:24:31.269Z,961.92
2024-04-23T04:25:31.265Z,961.91
2024-04-23T04:26:31.236Z,961.91
2024-04-23T04:27:31.245Z,961.91
2024-04-23T04:28:31.462Z,961.92
2024-04-23T04:29:31.209Z,961.95
2024-04-23T04:30:31.215Z,961.95
2024-04-23T04:31:31.219Z,961.96
2024-04-23T04:32:31.203Z,961.96
2024-04-23T04:33:31.209Z,961.96
2024-04-23T04:34:31.189Z,961.97
2024-04-23T04:35:31.150Z,961.97
2024-04-23T04:36:31.187Z,961.97
2024-04-23T04:37:31.202Z,961.96
2024-04-23T04:38:31.150Z,961.95
2024-04-23T04:39:31.116Z,961.96
2024-04-23T04:40:31.123Z,961.96
2024-04-23T04:41:31.119Z,961.97
2024-04-23T04:42:31.083Z,961.97
2024-04-23T04:43:31.128Z,961.99
2024-04-23T04:44:31.075Z,962.00
2024-04-23T04:45:31.060Z,962.02
2024-04-23T04:46:31.122Z,962.03
2024-04-23T04:47:31.156Z,962.03
2024-04-23T04:48:31.057Z,962.03
2024-04-23T04:49:31.025Z,962.03
2024-04-23T04:50:31.014Z,962.03
2024-04-23T04:51:31.015Z,962.03
2024-04-23T04:52:31.035Z,962.02
2024-04-23T04:53:30.992Z,962.02
2024-04-23T04:54:30.955Z,962.02
2024-04-23T04:55:30.984Z,962.03
2024-04-23T04:56:30.970Z,962.02
2024-04-23T04:57:30.949Z,962.01
2024-04-23T04:58:30.986Z,962.01
2024-04-23T04:59:30.922Z,962.03
2024-04-23T05:00:30.875Z,962.03
2024-04-23T05:01:30.942Z,962.04
2024-04-23T05:02:30.889Z,962.06
2024-04-23T05:03:30.848Z,962.05
2024-04-23T05:04:30.915Z,962.04
2024-04-23T05:05:30.882Z,962.04
2024-04-23T05:06:30.848Z,962.05
2024-04-23T05:07:30.891Z,962.06
2024-04-23T05:08:30.813Z,962.08
2024-04-23T05:09:30.814Z,962.09
2024-04-23T05:10:30.848Z,962.09
2024-04-23T05:11:30.815Z,962.10
2024-04-23T05:12:30.788Z,962.10
2024-04-23T05:13:30.801Z,962.11
2024-04-23T05:14:30.779Z,962.13
2024-04-23T05:15:30.745Z,962.14
2024-04-23T05:16:30.786Z,962.15
2024-04-23T05:17:30.797Z,962.16
2024-04-23T05:18:30.719Z,962.15
2024-04-23T05:19:30.724Z,962.14
2024-04-23T05:20:30.713Z,962.14
2024-04-23T05:21:37.728Z,962.14
2024-04-23T05:22:30.703Z,962.14
2024-04-23T05:23:30.656Z,962.15
2024-04-23T05:24:30.649Z,962.16
2024-04-23T05:25:30.665Z,962.17
2024-04-23T05:26:30.616Z,962.15
2024-04-23T05:27:30.624Z,962.16
2024-04-23T05:28:30.625Z,962.17
2024-04-23T05:29:30.646Z,962.18
2024-04-23T05:30:30.604Z,962.18
2024-04-23T05:31:30.633Z,962.19
2024-04-23T05:32:30.628Z,962.21
2024-04-23T05:33:30.745Z,962.23
2024-04-23T05:34:30.638Z,962.25
2024-04-23T05:35:30.545Z,962.26
2024-04-23T05:36:30.525Z,962.28
2024-04-23T05:37:30.675Z,962.29
2024-04-23T05:38:30.578Z,962.30
2024-04-23T05:39:30.516Z,962.31
2024-04-23T05:40:30.549Z,962.32
2024-04-23T05:41:30.528Z,962.31
2024-04-23T05:42:30.469Z,962.31
2024-04-23T05:43:30.490Z,962.31
2024-04-23T05:44:30.470Z,962.31
2024-04-23T05:45:30.439Z,962.32
2024-04-23T05:46:30.453Z,962.30
2024-04-23T05:47:30.707Z,962.30
2024-04-23T05:48:30.468Z,962.31
2024-04-23T05:49:30.461Z,962.31
2024-04-23T05:50:30.392Z,962.31
2024-04-23T05:51:30.365Z,962.29
2024-04-23T05:52:30.924Z,962.31
2024-04-23T05:53:30.418Z,962.30
2024-04-23T05:54:30.383Z,962.32
2024-04-23T05:55:30.371Z,962.33
2024-04-23T05:56:30.367Z,962.33
2024-04-23T05:57:30.379Z,962.36
2024-04-23T05:58:30.346Z,962.36
2024-04-23T05:59:30.309Z,962.37
2024-04-23T06:00:30.478Z,962.36
2024-04-23T06:01:30.336Z,962.36
2024-04-23T06:02:30.303Z,962.38
2024-04-23T06:03:30.303Z,962.38
2024-04-23T06:04:30.301Z,962.38
2024-04-23T06:05:30.249Z,962.38
2024-04-23T06:06:30.308Z,962.39
2024-04-23T06:07:30.218Z,962.37
2024-04-23T06:08:30.218Z,962.39
2024-04-23T06:09:30.183Z,962.38
2024-04-23T06:10:30.232Z,962.39
2024-04-23T06:11:30.248Z,962.39
2024-04-23T06:12:30.166Z,962.38
2024-04-23T06:13:30.173Z,962.37
2024-04-23T06:14:30.214Z,962.38
2024-04-23T06:15:30.156Z,962.38
2024-04-23T06:16:30.175Z,962.39
2024-04-23T06:17:35.951Z,962.37
2024-04-23T06:18:30.178Z,962.36
2024-04-23T06:19:30.161Z,962.36
2024-04-23T06:20:30.130Z,962.37
2024-04-23T06:21:30.050Z,962.37
2024-04-23T06:22:30.091Z,962.36
2024-04-23T06:23:30.029Z,962.36
2024-04-23T06:24:30.054Z,962.36
2024-04-23T06:25:30.044Z,962.36
2024-04-23T06:26:30.066Z,962.35
2024-04-23T06:27:30.017Z,962.35
2024-04-23T06:28:30.067Z,962.34
2024-04-23T06:29:30.005Z,962.32
2024-04-23T06:30:30.074Z,962.31
2024-04-23T06:31:31.828Z,962.33
2024-04-23T06:32:30.041Z,962.33
2024-04-23T06:33:29.955Z,962.35
2024-04-23T06:34:29.967Z,962.36
2024-04-23T06:35:29.959Z,962.35
2024-04-23T06:36:29.906Z,962.35
2024-04-23T06:37:29.940Z,962.35
2024-04-23T06:38:29.927Z,962.35
2024-04-23T06:39:29.900Z,962.36
2024-04-23T06:40:29.900Z,962.32
2024-04-23T06:41:29.860Z,962.32
2024-04-23T06:42:29.875Z,962.32
2024-04-23T06:43:29.906Z,962.33
2024-04-23T06:44:29.887Z,962.34
2024-04-23T06:45:29.823Z,962.33
2024-04-23T06:46:29.830Z,962.33
2024-04-23T06:47:29.861Z,962.31
2024-04-23T06:48:29.829Z,962.34
2024-04-23T06:49:29.807Z,962.33
2024-04-23T06:50:29.788Z,962.33
2024-04-23T06:51:29.766Z,962.32
2024-04-23T06:52:29.863Z,962.32
2024-04-23T06:53:29.819Z,962.29
2024-04-23T06:54:29.717Z,962.31
2024-04-23T06:55:29.841Z,962.28
2024-04-23T06:56:29.708Z,962.27
2024-04-23T06:57:29.737Z,962.26
2024-04-23T06:58:31.675Z,962.27
2024-04-23T06:59:29.693Z,962.28
2024-04-23T07:00:29.780Z,962.29
2024-04-23T07:01:29.678Z,962.29
2024-04-23T07:02:29.760Z,962.29
2024-04-23T07:03:29.700Z,962.29
2024-04-23T07:04:29.698Z,962.31
2024-04-23T07:05:29.619Z,962.31
2024-04-23T07:06:29.661Z,962.29
2024-04-23T07:07:29.636Z,962.30
2024-04-23T07:08:29.593Z,962.29
2024-04-23T07:09:29.587Z,962.28
2024-04-23T07:10:29.636Z,962.27
2024-04-23T07:11:29.656Z,962.26
2024-04-23T07:12:29.616Z,962.26
2024-04-23T07:13:29.568Z,962.25
2024-04-23T07:14:29.509Z,962.24
2024-04-23T07:15:29.520Z,962.22
2024-04-23T07:16:29.550Z,962.24
2024-04-23T07:17:29.695Z,962.22
2024-04-23T07:18:29.517Z,962.22
2024-04-23T07:19:29.553Z,962.20
2024-04-23T07:20:29.470Z,962.19
2024-04-23T07:21:29.479Z,962.18
2024-04-23T07:22:29.454Z,962.17
2024-04-23T07:23:29.427Z,962.18
2024-04-23T07:24:29.440Z,962.18
2024-04-23T07:25:29.430Z,962.19
2024-04-23T07:26:29.420Z,962.18
2024-04-23T07:27:29.424Z,962.16
2024-04-23T07:28:29.424Z,962.15
2024-04-23T07:29:29.370Z,962.13
2024-04-23T07:30:29.379Z,962.14
2024-04-23T07:31:29.355Z,962.14
2024-04-23T07:32:29.390Z,962.14
2024-04-23T07:33:29.499Z,962.12
2024-04-23T07:34:29.472Z,962.12
2024-04-23T07:35:29.438Z,962.11
2024-04-23T07:36:29.363Z,962.11
2024-04-23T07:37:29.302Z,962.10
2024-04-23T07:38:29.304Z,962.09
2024-04-23T07:39:29.300Z,962.12
2024-04-23T07:40:29.335Z,962.10
2024-04-23T07:41:29.285Z,962.08
2024-04-23T07:42:29.270Z,962.06
2024-04-23T07:43:29.359Z,962.08
2024-04-23T07:44:29.334Z,962.04
2024-04-23T07:45:29.234Z,962.04
2024-04-23T07:46:29.354Z,962.06
2024-04-23T07:47:29.301Z,962.07
2024-04-23T07:48:29.248Z,962.10
2024-04-23T07:49:29.287Z,962.06
2024-04-23T07:50:29.170Z,962.04
2024-04-23T07:51:29.375Z,962.05
2024-04-23T07:52:29.164Z,962.07
2024-04-23T07:53:29.154Z,962.05
2024-04-23T07:54:29.249Z,962.04
2024-04-23T07:55:29.121Z,962.04
2024-04-23T07:56:29.108Z,962.03
2024-04-23T07:57:29.090Z,962.01
2024-04-23T07:58:29.097Z,962.02
2024-04-23T07:59:29.091Z,962.01
2024-04-23T08:00:30.055Z,962.00
2024-04-23T08:01:29.075Z,962.00
2024-04-23T08:02:29.049Z,962.01
2024-04-23T08:03:29.055Z,962.00
2024-04-23T08:04:29.010Z,962.02
2024-04-23T08:05:29.032Z,962.05
2024-04-23T08:06:28.985Z,962.03
2024-04-23T08:07:29.004Z,962.02
2024-04-23T08:08:28.991Z,961.99
2024-04-23T08:09:28.950Z,962.01
2024-04-23T08:10:28.965Z,962.00
2024-04-23T08:11:29.064Z,961.99
2024-04-23T08:12:28.948Z,962.00
2024-04-23T08:13:28.908Z,962.00
2024-04-23T08:14:28.898Z,962.01
2024-04-23T08:15:28.919Z,961.98
2024-04-23T08:16:28.912Z,961.99
2024-04-23T08:17:29.079Z,961.99
2024-04-23T08:18:28.943Z,961.97
2024-04-23T08:19:28.830Z,961.98
2024-04-23T08:20:28.825Z,962.01
2024-04-23T08:21:28.831Z,961.98
2024-04-23T08:22:28.867Z,961.98
2024-04-23T08:23:28.794Z,962.00
2024-04-23T08:24:28.821Z,962.00
2024-04-23T08:25:28.792Z,961.98
2024-04-23T08:26:28.790Z,961.98
2024-04-23T08:27:28.810Z,962.00
2024-04-23T08:28:28.756Z,962.02
2024-04-23T08:29:28.763Z,961.97
2024-04-23T08:30:28.774Z,961.98
2024-04-23T08:31:28.755Z,961.96
2024-04-23T08:32:30.835Z,961.93
2024-04-23T08:33:28.771Z,961.91
2024-04-23T08:34:28.709Z,961.93
2024-04-23T08:35:28.766Z,961.89
2024-04-23T08:36:28.674Z,961.85
2024-04-23T08:37:28.662Z,961.89
2024-04-23T08:38:30.531Z,961.87
2024-04-23T08:39:28.723Z,961.87
2024-04-23T08:40:28.660Z,961.86
2024-04-23T08:41:28.727Z,961.85
2024-04-23T08:42:31.037Z,961.87
2024-04-23T08:43:28.638Z,961.85
2024-04-23T08:44:28.669Z,961.88
2024-04-23T08:45:28.663Z,961.88
2024-04-23T08:46:28.559Z,961.88
2024-04-23T08:47:28.754Z,961.87
2024-04-23T08:48:32.720Z,961.87
2024-04-23T08:49:28.705Z,961.85
2024-04-23T08:50:28.603Z,961.82
2024-04-23T08:51:28.537Z,961.82
2024-04-23T08:52:28.509Z,961.79
2024-04-23T08:53:28.510Z,961.80
2024-04-23T08:54:28.516Z,961.80
2024-04-23T08:55:28.527Z,961.74
2024-04-23T08:56:28.470Z,961.72
2024-04-23T08:57:28.458Z,961.72
2024-04-23T08:58:28.466Z,961.74
2024-04-23T08:59:28.486Z,961.74
2024-04-23T09:00:32.801Z,961.73
2024-04-23T09:01:28.488Z,961.72
2024-04-23T09:02:28.456Z,961.71
2024-04-23T09:03:28.414Z,961.73
2024-04-23T09:04:28.546Z,961.69
2024-04-23T09:05:28.440Z,961.76
2024-04-23T09:06:28.373Z,961.75
2024-04-23T09:07:32.945Z,961.80
2024-04-23T09:08:28.366Z,961.75
2024-04-23T09:09:28.350Z,961.78
2024-04-23T09:10:28.340Z,961.80
2024-04-23T09:11:28.580Z,961.78
2024-04-23T09:12:28.323Z,961.79
2024-04-23T09:13:28.327Z,961.77
2024-04-23T09:14:28.323Z,961.79
2024-04-23T09:15:28.302Z,961.79
2024-04-23T09:16:28.280Z,961.93
2024-04-23T09:17:28.343Z,961.79
2024-04-23T09:18:28.365Z,961.75
2024-04-23T09:19:28.274Z,961.73
2024-04-23T09:20:28.243Z,961.71
2024-04-23T09:21:28.256Z,961.69
2024-04-23T09:22:28.206Z,961.73
2024-04-23T09:23:28.222Z,961.71
2024-04-23T09:24:28.199Z,961.74
2024-04-23T09:25:28.185Z,961.70
2024-04-23T09:26:28.191Z,961.70
2024-04-23T09:27:28.188Z,961.70
2024-04-23T09:28:28.206Z,961.71
2024-04-23T09:29:28.211Z,961.69
2024-04-23T09:30:28.170Z,961.73
2024-04-23T09:31:28.247Z,961.71
2024-04-23T09:32:28.232Z,961.75
2024-04-23T09:33:28.285Z,961.76
2024-04-23T09:34:32.436Z,961.76
2024-04-23T09:35:28.123Z,961.70
2024-04-23T09:36:28.107Z,961.71
2024-04-23T09:37:28.069Z,961.73
2024-04-23T09:38:28.061Z,961.68
2024-04-23T09:39:28.139Z,961.64
2024-04-23T09:40:28.017Z,961.72
2024-04-23T09:41:28.272Z,961.74
2024-04-23T09:42:28.023Z,961.69
2024-04-23T09:43:27.994Z,961.69
2024-04-23T09:44:28.006Z,961.72
2024-04-23T09:45:27.990Z,961.72
2024-04-23T09:46:27.937Z,961.72
2024-04-23T09:47:27.994Z,961.68
2024-04-23T09:48:28.160Z,961.67
2024-04-23T09:49:27.954Z,961.66
2024-04-23T09:50:27.924Z,961.62
2024-04-23T09:51:27.914Z,961.67
2024-04-23T09:52:30.205Z,961.59
2024-04-23T09:53:27.867Z,961.59
2024-04-23T09:54:27.898Z,961.59
2024-04-23T09:55:27.884Z,961.56
2024-04-23T09:56:27.851Z,961.53
2024-04-23T09:57:27.867Z,961.58
2024-04-23T09:58:30.258Z,961.61
2024-04-23T09:59:27.855Z,961.53
2024-04-23T10:00:27.862Z,961.50
2024-04-23T10:01:27.849Z,961.52
2024-04-23T10:02:27.927Z,961.53
2024-04-23T10:03:27.912Z,961.52
2024-04-23T10:04:30.297Z,961.51
2024-04-23T10:05:27.814Z,961.56
2024-04-23T10:06:27.788Z,961.47
2024-04-23T10:07:27.750Z,961.53
2024-04-23T10:08:27.786Z,961.47
2024-04-23T10:09:27.766Z,961.51
2024-04-23T10:10:27.685Z,961.48
2024-04-23T10:11:27.936Z,961.54
2024-04-23T10:12:27.677Z,961.52
2024-04-23T10:13:27.684Z,961.47
2024-04-23T10:14:27.680Z,961.47
2024-04-23T10:15:27.665Z,961.46
2024-04-23T10:16:27.630Z,961.39
2024-04-23T10:17:27.646Z,961.46
2024-04-23T10:18:27.700Z,961.43
2024-04-23T10:19:27.632Z,961.44
2024-04-23T10:20:27.602Z,961.44
2024-04-23T10:21:27.630Z,961.43
2024-04-23T10:22:27.572Z,961.45
2024-04-23T10:23:27.566Z,961.42
2024-04-23T10:24:27.578Z,961.40
2024-04-23T10:25:27.551Z,961.41
2024-04-23T10:26:27.546Z,961.40
2024-04-23T10:27:27.559Z,961.39
2024-04-23T10:28:27.506Z,961.38
2024-04-23T10:29:27.578Z,961.37
2024-04-23T10:30:27.510Z,961.31
2024-04-23T10:31:27.501Z,961.38
2024-04-23T10:32:27.715Z,961.40
2024-04-23T10:33:27.560Z,961.34
2024-04-23T10:34:27.495Z,961.31
2024-04-23T10:35:27.450Z,961.30
2024-04-23T10:36:27.439Z,961.35
2024-04-23T10:37:27.444Z,961.26
2024-04-23T10:38:27.428Z,961.35
2024-04-23T10:39:27.483Z,961.32
2024-04-23T10:40:27.547Z,961.33
2024-04-23T10:41:27.462Z,961.31
2024-04-23T10:42:27.382Z,961.31
2024-04-23T10:43:27.517Z,961.38
2024-04-23T10:44:27.487Z,961.30
2024-04-23T10:45:27.467Z,961.29
2024-04-23T10:46:27.351Z,961.25
2024-04-23T10:47:27.394Z,961.25
2024-04-23T10:48:27.469Z,961.23
2024-04-23T10:49:27.344Z,961.18
2024-04-23T10:50:27.364Z,961.26
2024-04-23T10:51:27.292Z,961.26
2024-04-23T10:52:27.324Z,961.24
2024-04-23T10:53:27.287Z,961.25
2024-04-23T10:54:27.355Z,961.24
2024-04-23T10:55:27.310Z,961.26
2024-04-23T10:56:27.235Z,961.26
2024-04-23T10:57:27.290Z,961.22
2024-04-23T10:58:27.315Z,961.20
2024-04-23T10:59:30.309Z,961.18
2024-04-23T11:00:27.230Z,961.20
2024-04-23T11:01:27.234Z,961.21
2024-04-23T11:02:27.364Z,961.20
2024-04-23T11:03:27.750Z,961.17
2024-04-23T11:04:27.222Z,961.16
2024-04-23T11:05:27.226Z,961.15
2024-04-23T11:06:27.281Z,961.13
2024-04-23T11:07:27.116Z,961.14
2024-04-23T11:08:27.093Z,961.06
2024-04-23T11:09:27.121Z,961.13
2024-04-23T11:10:27.163Z,961.07
2024-04-23T11:11:27.269Z,961.10
2024-04-23T11:12:27.107Z,961.00
2024-04-23T11:13:27.057Z,961.08
2024-04-23T11:14:27.069Z,961.08
2024-04-23T11:15:27.048Z,961.10
2024-04-23T11:16:27.027Z,961.09
2024-04-23T11:17:27.340Z,961.05
2024-04-23T11:18:27.450Z,961.00
2024-04-23T11:19:27.026Z,961.02
2024-04-23T11:20:26.976Z,961.00
2024-04-23T11:21:27.158Z,960.95
2024-04-23T11:22:26.972Z,960.88
2024-04-23T11:23:26.944Z,960.92
2024-04-23T11:24:26.991Z,960.95
2024-04-23T11:25:26.977Z,960.93
2024-04-23T11:26:26.999Z,960.92
2024-04-23T11:27:26.928Z,960.97
2024-04-23T11:28:26.900Z,960.97
2024-04-23T11:29:26.919Z,960.97
2024-04-23T11:30:26.981Z,960.92
2024-04-23T11:31:26.883Z,960.91
2024-04-23T11:32:26.971Z,960.94
2024-04-23T11:33:26.944Z,960.90
2024-04-23T11:34:26.869Z,960.91
2024-04-23T11:35:26.849Z,960.92
2024-04-23T11:36:26.983Z,960.93
2024-04-23T11:37:26.891Z,960.93
2024-04-23T11:38:26.813Z,960.89
2024-04-23T11:39:26.845Z,960.92
2024-04-23T11:40:26.829Z,960.85
2024-04-23T11:41:26.774Z,960.84
2024-04-23T11:42:26.769Z,960.83
2024-04-23T11:43:26.786Z,960.80
2024-04-23T11:44:26.761Z,960.81
2024-04-23T11:45:26.733Z,960.82
2024-04-23T11:46:26.755Z,960.83
2024-04-23T11:47:28.917Z,960.78
2024-04-23T11:48:26.769Z,960.79
2024-04-23T11:49:26.708Z,960.78
2024-04-23T11:50:26.688Z,960.77
2024-04-23T11:51:26.687Z,960.77
2024-04-23T11:52:26.680Z,960.75
2024-04-23T11:53:26.676Z,960.74
2024-04-23T11:54:26.667Z,960.78
2024-04-23T11:55:26.640Z,960.80
2024-04-23T11:56:26.635Z,960.76
2024-04-23T11:57:26.600Z,960.74
2024-04-23T11:58:26.660Z,960.73
2024-04-23T11:59:26.612Z,960.71
2024-04-23T12:00:26.600Z,960.68
2024-04-23T12:01:26.584Z,960.67
2024-04-23T12:02:26.560Z,960.64
2024-04-23T12:03:26.561Z,960.66
2024-04-23T12:04:26.615Z,960.67
2024-04-23T12:05:26.647Z,960.64
2024-04-23T12:06:26.646Z,960.67
2024-04-23T12:07:26.522Z,960.65
2024-04-23T12:08:26.483Z,960.67
2024-04-23T12:09:26.483Z,960.65
2024-04-23T12:10:26.484Z,960.63
2024-04-23T12:11:26.523Z,960.59
2024-04-23T12:12:26.444Z,960.63
2024-04-23T12:13:26.438Z,960.60
2024-04-23T12:14:26.458Z,960.57
2024-04-23T12:15:26.423Z,960.53
2024-04-23T12:16:26.388Z,960.62
2024-04-23T12:17:26.472Z,960.58
2024-04-23T12:18:26.525Z,960.59
2024-04-23T12:19:26.427Z,960.59
2024-04-23T12:20:26.462Z,960.57
2024-04-23T12:21:26.379Z,960.55
2024-04-23T12:22:26.361Z,960.57
2024-04-23T12:23:26.386Z,960.55
2024-04-23T12:24:28.632Z,960.58
2024-04-23T12:25:26.314Z,960.55
2024-04-23T12:26:26.330Z,960.57
2024-04-23T12:27:26.355Z,960.55
2024-04-23T12:28:26.281Z,960.52